Cadiz, California
Current Conditions -  °F | °C
As of 3:56 PM on Sunday 23 Nov 2014 (Local Time) from KNXP Reporting Station
Clear Clear  
Wind Chill: 62°   Ceiling: Unl
Heat Index: 62°   Visibility: 9mi
Dew Point:   Wind: 5mph
Humidity: 12%   Direction: 360°N
Pressure: 30.27"   Gusts: NA
Location:  34.6377°N, 115.833°W
Report Text: KNXP 232356Z AUTO 36004KT 9SM CLR 17/M13 A3027 RMK AO2 SLP228 T01671133 10183 20161 55004 $
Loading
Personal Weather Stations






























Interactive Weather Map New forecast layout! Learn more

10-Day Weather Forecast

Advertisements
Track Severe Weather on mobile